sensor_id;sensor_type;location;lat;lon;timestamp;P1;durP1;ratioP1;P2;durP2;ratioP2
65328;SDS011;51941;52.210;5.158;2023-04-24T00:00:29;1.27;;;0.47;;
65328;SDS011;51941;52.210;5.158;2023-04-24T00:03:00;0.40;;;0.20;;
65328;SDS011;51941;52.210;5.158;2023-04-24T00:05:28;0.10;;;0.10;;
65328;SDS011;51941;52.210;5.158;2023-04-24T00:07:54;0.77;;;0.35;;
65328;SDS011;51941;52.210;5.158;2023-04-24T00:10:21;0.40;;;0.22;;
65328;SDS011;51941;52.210;5.158;2023-04-24T00:12:48;0.35;;;0.30;;
65328;SDS011;51941;52.210;5.158;2023-04-24T00:15:14;1.08;;;0.60;;
65328;SDS011;51941;52.210;5.158;2023-04-24T00:17:41;0.52;;;0.50;;
65328;SDS011;51941;52.210;5.158;2023-04-24T00:20:10;0.75;;;0.60;;
65328;SDS011;51941;52.210;5.158;2023-04-24T00:22:37;0.50;;;0.40;;
65328;SDS011;51941;52.210;5.158;2023-04-24T00:25:03;0.20;;;0.20;;
65328;SDS011;51941;52.210;5.158;2023-04-24T00:27:31;0.30;;;0.20;;
65328;SDS011;51941;52.210;5.158;2023-04-24T00:30:00;0.68;;;0.30;;
65328;SDS011;51941;52.210;5.158;2023-04-24T00:32:26;0.20;;;0.20;;
65328;SDS011;51941;52.210;5.158;2023-04-24T00:34:54;0.88;;;0.43;;
65328;SDS011;51941;52.210;5.158;2023-04-24T00:37:22;1.10;;;0.63;;
65328;SDS011;51941;52.210;5.158;2023-04-24T00:39:49;0.60;;;0.50;;
65328;SDS011;51941;52.210;5.158;2023-04-24T00:42:15;2.75;;;0.93;;
65328;SDS011;51941;52.210;5.158;2023-04-24T00:44:42;2.00;;;0.90;;
65328;SDS011;51941;52.210;5.158;2023-04-24T00:47:09;2.75;;;1.30;;
65328;SDS011;51941;52.210;5.158;2023-04-24T00:49:37;2.10;;;1.10;;
65328;SDS011;51941;52.210;5.158;2023-04-24T00:52:03;1.23;;;1.10;;
65328;SDS011;51941;52.210;5.158;2023-04-24T00:54:35;2.58;;;1.00;;
65328;SDS011;51941;52.210;5.158;2023-04-24T00:57:02;2.35;;;1.00;;
65328;SDS011;51941;52.210;5.158;2023-04-24T00:59:29;1.05;;;0.90;;
65328;SDS011;51941;52.210;5.158;2023-04-24T01:01:56;1.02;;;0.80;;
65328;SDS011;51941;52.210;5.158;2023-04-24T01:04:23;2.05;;;0.70;;
65328;SDS011;51941;52.210;5.158;2023-04-24T01:06:51;1.20;;;0.57;;
65328;SDS011;51941;52.210;5.158;2023-04-24T01:09:18;1.48;;;0.60;;
65328;SDS011;51941;52.210;5.158;2023-04-24T01:11:47;1.33;;;0.68;;
65328;SDS011;51941;52.210;5.158;2023-04-24T01:14:14;1.98;;;0.52;;
65328;SDS011;51941;52.210;5.158;2023-04-24T01:16:41;2.28;;;0.60;;
65328;SDS011;51941;52.210;5.158;2023-04-24T01:19:07;0.95;;;0.50;;
65328;SDS011;51941;52.210;5.158;2023-04-24T01:21:36;1.50;;;0.50;;
65328;SDS011;51941;52.210;5.158;2023-04-24T01:24:06;1.40;;;0.40;;
65328;SDS011;51941;52.210;5.158;2023-04-24T01:26:33;1.00;;;0.40;;
65328;SDS011;51941;52.210;5.158;2023-04-24T01:29:00;0.50;;;0.30;;
65328;SDS011;51941;52.210;5.158;2023-04-24T01:31:26;2.05;;;0.40;;
65328;SDS011;51941;52.210;5.158;2023-04-24T01:33:53;1.05;;;0.55;;
65328;SDS011;51941;52.210;5.158;2023-04-24T01:36:22;1.58;;;0.60;;
65328;SDS011;51941;52.210;5.158;2023-04-24T01:38:50;1.42;;;0.70;;
65328;SDS011;51941;52.210;5.158;2023-04-24T01:41:18;1.10;;;0.80;;
65328;SDS011;51941;52.210;5.158;2023-04-24T01:43:45;0.80;;;0.75;;
65328;SDS011;51941;52.210;5.158;2023-04-24T01:46:12;1.25;;;0.80;;
65328;SDS011;51941;52.210;5.158;2023-04-24T01:48:38;1.05;;;0.70;;
65328;SDS011;51941;52.210;5.158;2023-04-24T01:51:06;2.28;;;0.90;;
65328;SDS011;51941;52.210;5.158;2023-04-24T01:53:32;1.05;;;0.60;;
65328;SDS011;51941;52.210;5.158;2023-04-24T01:55:59;1.23;;;0.82;;
65328;SDS011;51941;52.210;5.158;2023-04-24T01:58:28;1.48;;;0.52;;
65328;SDS011;51941;52.210;5.158;2023-04-24T02:00:55;1.38;;;0.60;;
65328;SDS011;51941;52.210;5.158;2023-04-24T02:03:22;1.70;;;0.50;;
65328;SDS011;51941;52.210;5.158;2023-04-24T02:05:49;0.57;;;0.50;;
65328;SDS011;51941;52.210;5.158;2023-04-24T02:08:16;1.02;;;0.60;;
65328;SDS011;51941;52.210;5.158;2023-04-24T02:10:42;2.67;;;0.60;;
65328;SDS011;51941;52.210;5.158;2023-04-24T02:13:09;2.72;;;0.50;;
65328;SDS011;51941;52.210;5.158;2023-04-24T02:15:37;1.30;;;0.60;;
65328;SDS011;51941;52.210;5.158;2023-04-24T02:18:04;1.02;;;0.60;;
65328;SDS011;51941;52.210;5.158;2023-04-24T02:20:31;1.42;;;0.60;;
65328;SDS011;51941;52.210;5.158;2023-04-24T02:22:59;0.50;;;0.43;;
65328;SDS011;51941;52.210;5.158;2023-04-24T02:25:25;1.27;;;0.40;;
65328;SDS011;51941;52.210;5.158;2023-04-24T02:27:54;0.75;;;0.50;;
65328;SDS011;51941;52.210;5.158;2023-04-24T02:30:21;1.17;;;0.40;;
65328;SDS011;51941;52.210;5.158;2023-04-24T02:32:49;0.63;;;0.38;;
65328;SDS011;51941;52.210;5.158;2023-04-24T02:35:17;1.85;;;0.50;;
65328;SDS011;51941;52.210;5.158;2023-04-24T02:37:43;1.17;;;0.40;;
65328;SDS011;51941;52.210;5.158;2023-04-24T02:40:11;0.75;;;0.35;;
65328;SDS011;51941;52.210;5.158;2023-04-24T02:42:38;0.40;;;0.30;;
65328;SDS011;51941;52.210;5.158;2023-04-24T02:45:05;1.15;;;0.50;;
65328;SDS011;51941;52.210;5.158;2023-04-24T02:47:33;0.60;;;0.45;;
65328;SDS011;51941;52.210;5.158;2023-04-24T02:50:01;2.85;;;0.50;;
65328;SDS011;51941;52.210;5.158;2023-04-24T02:52:28;1.63;;;0.55;;
65328;SDS011;51941;52.210;5.158;2023-04-24T02:54:54;2.38;;;0.98;;
65328;SDS011;51941;52.210;5.158;2023-04-24T02:57:21;2.42;;;0.90;;
65328;SDS011;51941;52.210;5.158;2023-04-24T02:59:48;1.52;;;0.57;;
65328;SDS011;51941;52.210;5.158;2023-04-24T03:02:15;1.20;;;0.70;;
65328;SDS011;51941;52.210;5.158;2023-04-24T03:04:41;0.68;;;0.60;;
65328;SDS011;51941;52.210;5.158;2023-04-24T03:07:12;1.42;;;1.08;;
65328;SDS011;51941;52.210;5.158;2023-04-24T03:09:39;2.05;;;0.80;;
65328;SDS011;51941;52.210;5.158;2023-04-24T03:12:07;2.63;;;0.90;;
65328;SDS011;51941;52.210;5.158;2023-04-24T03:14:33;1.83;;;0.90;;
65328;SDS011;51941;52.210;5.158;2023-04-24T03:17:00;1.25;;;1.02;;
65328;SDS011;51941;52.210;5.158;2023-04-24T03:19:27;3.85;;;1.65;;
65328;SDS011;51941;52.210;5.158;2023-04-24T03:22:01;1.58;;;1.20;;
65328;SDS011;51941;52.210;5.158;2023-04-24T03:24:30;2.05;;;1.10;;
65328;SDS011;51941;52.210;5.158;2023-04-24T03:26:57;1.48;;;0.98;;
65328;SDS011;51941;52.210;5.158;2023-04-24T03:29:53;2.05;;;1.00;;
65328;SDS011;51941;52.210;5.158;2023-04-24T03:32:23;1.73;;;1.10;;
65328;SDS011;51941;52.210;5.158;2023-04-24T03:34:51;2.08;;;1.20;;
65328;SDS011;51941;52.210;5.158;2023-04-24T03:37:17;2.03;;;1.10;;
65328;SDS011;51941;52.210;5.158;2023-04-24T03:39:56;1.73;;;1.00;;
65328;SDS011;51941;52.210;5.158;2023-04-24T03:42:24;1.25;;;0.93;;
65328;SDS011;51941;52.210;5.158;2023-04-24T03:47:24;1.17;;;0.85;;
65328;SDS011;51941;52.210;5.158;2023-04-24T03:49:54;1.05;;;0.73;;
65328;SDS011;51941;52.210;5.158;2023-04-24T03:52:21;2.08;;;0.90;;
65328;SDS011;51941;52.210;5.158;2023-04-24T03:54:48;1.63;;;0.70;;
65328;SDS011;51941;52.210;5.158;2023-04-24T03:57:16;0.82;;;0.82;;
65328;SDS011;51941;52.210;5.158;2023-04-24T03:59:56;1.73;;;0.75;;
65328;SDS011;51941;52.210;5.158;2023-04-24T04:02:24;1.42;;;0.80;;
65328;SDS011;51941;52.210;5.158;2023-04-24T04:04:51;0.73;;;0.60;;
65328;SDS011;51941;52.210;5.158;2023-04-24T04:07:18;1.80;;;0.73;;
65328;SDS011;51941;52.210;5.158;2023-04-24T04:09:44;0.95;;;0.73;;
65328;SDS011;51941;52.210;5.158;2023-04-24T04:12:11;3.05;;;1.08;;
65328;SDS011;51941;52.210;5.158;2023-04-24T04:14:40;2.20;;;0.70;;
65328;SDS011;51941;52.210;5.158;2023-04-24T04:17:07;1.50;;;0.80;;
65328;SDS011;51941;52.210;5.158;2023-04-24T04:19:34;1.20;;;0.88;;
65328;SDS011;51941;52.210;5.158;2023-04-24T04:22:01;1.65;;;0.85;;
65328;SDS011;51941;52.210;5.158;2023-04-24T04:24:40;1.25;;;1.00;;
65328;SDS011;51941;52.210;5.158;2023-04-24T04:27:07;1.40;;;1.02;;
65328;SDS011;51941;52.210;5.158;2023-04-24T04:29:44;1.67;;;0.90;;
65328;SDS011;51941;52.210;5.158;2023-04-24T04:32:13;3.08;;;1.17;;
65328;SDS011;51941;52.210;5.158;2023-04-24T04:34:41;1.42;;;1.20;;
65328;SDS011;51941;52.210;5.158;2023-04-24T04:37:10;2.08;;;1.23;;
65328;SDS011;51941;52.210;5.158;2023-04-24T04:39:54;1.35;;;1.08;;
65328;SDS011;51941;52.210;5.158;2023-04-24T04:42:23;1.35;;;1.00;;
65328;SDS011;51941;52.210;5.158;2023-04-24T04:44:52;1.30;;;1.20;;
65328;SDS011;51941;52.210;5.158;2023-04-24T04:47:25;1.65;;;1.00;;
65328;SDS011;51941;52.210;5.158;2023-04-24T04:49:55;1.50;;;0.90;;
65328;SDS011;51941;52.210;5.158;2023-04-24T04:52:26;1.25;;;0.73;;
65328;SDS011;51941;52.210;5.158;2023-04-24T04:55:09;1.02;;;0.90;;
65328;SDS011;51941;52.210;5.158;2023-04-24T05:00:30;2.35;;;1.15;;
65328;SDS011;51941;52.210;5.158;2023-04-24T05:03:01;3.03;;;1.10;;
65328;SDS011;51941;52.210;5.158;2023-04-24T05:05:28;1.58;;;0.70;;
65328;SDS011;51941;52.210;5.158;2023-04-24T05:07:55;0.70;;;0.60;;
65328;SDS011;51941;52.210;5.158;2023-04-24T05:10:22;0.75;;;0.50;;
65328;SDS011;51941;52.210;5.158;2023-04-24T05:12:51;1.00;;;0.40;;
65328;SDS011;51941;52.210;5.158;2023-04-24T05:15:18;0.45;;;0.35;;
65328;SDS011;51941;52.210;5.158;2023-04-24T05:17:46;0.90;;;0.50;;
65328;SDS011;51941;52.210;5.158;2023-04-24T05:20:13;0.85;;;0.40;;
65328;SDS011;51941;52.210;5.158;2023-04-24T05:22:40;0.75;;;0.30;;
65328;SDS011;51941;52.210;5.158;2023-04-24T05:25:07;0.35;;;0.30;;
65328;SDS011;51941;52.210;5.158;2023-04-24T05:27:52;0.85;;;0.40;;
65328;SDS011;51941;52.210;5.158;2023-04-24T05:30:19;0.93;;;0.20;;
65328;SDS011;51941;52.210;5.158;2023-04-24T05:32:47;0.50;;;0.20;;
65328;SDS011;51941;52.210;5.158;2023-04-24T05:35:14;0.47;;;0.20;;
65328;SDS011;51941;52.210;5.158;2023-04-24T05:37:41;1.38;;;0.20;;
65328;SDS011;51941;52.210;5.158;2023-04-24T05:40:09;0.68;;;0.38;;
65328;SDS011;51941;52.210;5.158;2023-04-24T05:42:36;1.08;;;0.20;;
65328;SDS011;51941;52.210;5.158;2023-04-24T05:45:03;0.30;;;0.20;;
65328;SDS011;51941;52.210;5.158;2023-04-24T05:47:30;0.68;;;0.20;;
65328;SDS011;51941;52.210;5.158;2023-04-24T05:50:00;1.00;;;0.20;;
65328;SDS011;51941;52.210;5.158;2023-04-24T05:52:27;0.65;;;0.10;;
65328;SDS011;51941;52.210;5.158;2023-04-24T05:54:54;0.63;;;0.20;;
65328;SDS011;51941;52.210;5.158;2023-04-24T05:59:57;1.63;;;0.20;;
65328;SDS011;51941;52.210;5.158;2023-04-24T06:02:25;0.75;;;0.30;;
65328;SDS011;51941;52.210;5.158;2023-04-24T06:04:52;0.65;;;0.40;;
65328;SDS011;51941;52.210;5.158;2023-04-24T06:07:21;0.82;;;0.60;;
65328;SDS011;51941;52.210;5.158;2023-04-24T06:09:48;1.42;;;0.60;;
65328;SDS011;51941;52.210;5.158;2023-04-24T06:12:15;4.22;;;2.50;;
65328;SDS011;51941;52.210;5.158;2023-04-24T06:14:51;9.48;;;5.53;;
65328;SDS011;51941;52.210;5.158;2023-04-24T06:17:42;10.95;;;6.15;;
65328;SDS011;51941;52.210;5.158;2023-04-24T06:20:10;9.18;;;6.53;;
65328;SDS011;51941;52.210;5.158;2023-04-24T06:22:38;8.90;;;6.85;;
65328;SDS011;51941;52.210;5.158;2023-04-24T06:25:05;11.90;;;7.13;;
65328;SDS011;51941;52.210;5.158;2023-04-24T06:27:33;11.70;;;7.35;;
65328;SDS011;51941;52.210;5.158;2023-04-24T06:30:00;13.50;;;7.75;;
65328;SDS011;51941;52.210;5.158;2023-04-24T06:32:27;16.13;;;9.23;;
65328;SDS011;51941;52.210;5.158;2023-04-24T06:34:56;14.50;;;9.05;;
65328;SDS011;51941;52.210;5.158;2023-04-24T06:37:22;12.73;;;8.27;;
65328;SDS011;51941;52.210;5.158;2023-04-24T06:39:51;14.57;;;8.25;;
65328;SDS011;51941;52.210;5.158;2023-04-24T06:42:17;16.85;;;8.55;;
65328;SDS011;51941;52.210;5.158;2023-04-24T06:44:47;13.77;;;8.85;;
65328;SDS011;51941;52.210;5.158;2023-04-24T06:47:14;15.63;;;8.95;;
65328;SDS011;51941;52.210;5.158;2023-04-24T06:49:41;15.60;;;9.27;;
65328;SDS011;51941;52.210;5.158;2023-04-24T06:52:08;18.52;;;9.07;;
65328;SDS011;51941;52.210;5.158;2023-04-24T06:54:34;19.55;;;8.13;;
65328;SDS011;51941;52.210;5.158;2023-04-24T06:57:02;18.63;;;8.27;;
65328;SDS011;51941;52.210;5.158;2023-04-24T06:59:29;18.30;;;7.97;;
65328;SDS011;51941;52.210;5.158;2023-04-24T07:01:56;12.85;;;7.35;;
65328;SDS011;51941;52.210;5.158;2023-04-24T07:04:23;17.58;;;9.27;;
65328;SDS011;51941;52.210;5.158;2023-04-24T07:06:50;11.30;;;7.43;;
65328;SDS011;51941;52.210;5.158;2023-04-24T07:09:19;18.55;;;7.57;;
65328;SDS011;51941;52.210;5.158;2023-04-24T07:11:49;17.20;;;8.38;;
65328;SDS011;51941;52.210;5.158;2023-04-24T07:14:18;21.52;;;8.00;;
65328;SDS011;51941;52.210;5.158;2023-04-24T07:16:45;10.10;;;6.50;;
65328;SDS011;51941;52.210;5.158;2023-04-24T07:19:12;14.10;;;7.05;;
65328;SDS011;51941;52.210;5.158;2023-04-24T07:21:40;11.40;;;6.55;;
65328;SDS011;51941;52.210;5.158;2023-04-24T07:24:07;15.65;;;6.80;;
65328;SDS011;51941;52.210;5.158;2023-04-24T07:26:36;13.13;;;6.22;;
65328;SDS011;51941;52.210;5.158;2023-04-24T07:29:03;11.43;;;5.80;;
65328;SDS011;51941;52.210;5.158;2023-04-24T07:31:31;12.38;;;6.55;;
65328;SDS011;51941;52.210;5.158;2023-04-24T07:33:58;11.90;;;6.22;;
65328;SDS011;51941;52.210;5.158;2023-04-24T07:36:25;14.05;;;6.30;;
65328;SDS011;51941;52.210;5.158;2023-04-24T07:38:53;11.30;;;6.07;;
65328;SDS011;51941;52.210;5.158;2023-04-24T07:41:20;18.88;;;6.20;;
65328;SDS011;51941;52.210;5.158;2023-04-24T07:43:47;15.43;;;6.50;;
65328;SDS011;51941;52.210;5.158;2023-04-24T07:46:13;16.50;;;6.38;;
65328;SDS011;51941;52.210;5.158;2023-04-24T07:48:51;19.48;;;6.50;;
65328;SDS011;51941;52.210;5.158;2023-04-24T07:52:12;20.08;;;6.00;;
65328;SDS011;51941;52.210;5.158;2023-04-24T07:54:38;15.60;;;4.70;;
65328;SDS011;51941;52.210;5.158;2023-04-24T07:57:05;12.55;;;4.43;;
65328;SDS011;51941;52.210;5.158;2023-04-24T07:59:33;13.60;;;4.32;;
65328;SDS011;51941;52.210;5.158;2023-04-24T08:02:00;16.77;;;4.35;;
65328;SDS011;51941;52.210;5.158;2023-04-24T08:04:28;17.20;;;4.07;;
65328;SDS011;51941;52.210;5.158;2023-04-24T08:06:54;18.48;;;3.75;;
65328;SDS011;51941;52.210;5.158;2023-04-24T08:09:31;12.35;;;3.03;;
65328;SDS011;51941;52.210;5.158;2023-04-24T08:12:08;15.75;;;2.95;;
65328;SDS011;51941;52.210;5.158;2023-04-24T08:14:34;15.68;;;3.35;;
65328;SDS011;51941;52.210;5.158;2023-04-24T08:17:02;17.67;;;3.47;;
65328;SDS011;51941;52.210;5.158;2023-04-24T08:19:31;19.48;;;3.85;;
65328;SDS011;51941;52.210;5.158;2023-04-24T08:21:57;22.92;;;4.20;;
65328;SDS011;51941;52.210;5.158;2023-04-24T08:24:24;16.20;;;3.50;;
65328;SDS011;51941;52.210;5.158;2023-04-24T08:26:51;16.35;;;3.55;;
65328;SDS011;51941;52.210;5.158;2023-04-24T08:29:21;19.10;;;2.97;;
65328;SDS011;51941;52.210;5.158;2023-04-24T08:31:48;20.73;;;2.95;;
65328;SDS011;51941;52.210;5.158;2023-04-24T08:34:15;17.83;;;3.08;;
65328;SDS011;51941;52.210;5.158;2023-04-24T08:36:43;23.33;;;3.00;;
65328;SDS011;51941;52.210;5.158;2023-04-24T08:39:09;14.90;;;2.65;;
65328;SDS011;51941;52.210;5.158;2023-04-24T08:41:36;11.63;;;2.47;;
65328;SDS011;51941;52.210;5.158;2023-04-24T08:44:04;10.40;;;1.80;;
65328;SDS011;51941;52.210;5.158;2023-04-24T08:46:32;14.30;;;3.15;;
65328;SDS011;51941;52.210;5.158;2023-04-24T08:49:13;16.33;;;2.30;;
65328;SDS011;51941;52.210;5.158;2023-04-24T08:52:05;9.57;;;2.50;;
65328;SDS011;51941;52.210;5.158;2023-04-24T08:54:33;12.33;;;2.07;;
65328;SDS011;51941;52.210;5.158;2023-04-24T08:57:01;7.82;;;1.90;;
65328;SDS011;51941;52.210;5.158;2023-04-24T08:59:29;8.90;;;2.00;;
65328;SDS011;51941;52.210;5.158;2023-04-24T09:01:56;11.13;;;2.35;;
65328;SDS011;51941;52.210;5.158;2023-04-24T09:07:49;10.13;;;2.00;;
65328;SDS011;51941;52.210;5.158;2023-04-24T09:10:19;12.68;;;2.20;;
65328;SDS011;51941;52.210;5.158;2023-04-24T09:12:47;17.42;;;2.75;;
65328;SDS011;51941;52.210;5.158;2023-04-24T09:15:13;10.93;;;2.03;;
65328;SDS011;51941;52.210;5.158;2023-04-24T09:17:40;14.68;;;2.25;;
65328;SDS011;51941;52.210;5.158;2023-04-24T09:20:07;8.18;;;2.05;;
65328;SDS011;51941;52.210;5.158;2023-04-24T09:22:34;15.13;;;2.20;;
65328;SDS011;51941;52.210;5.158;2023-04-24T09:25:06;6.97;;;2.10;;
65328;SDS011;51941;52.210;5.158;2023-04-24T09:27:34;13.77;;;1.85;;
65328;SDS011;51941;52.210;5.158;2023-04-24T09:30:02;12.98;;;2.10;;
65328;SDS011;51941;52.210;5.158;2023-04-24T09:32:29;8.25;;;1.67;;
65328;SDS011;51941;52.210;5.158;2023-04-24T09:35:07;6.13;;;1.50;;
65328;SDS011;51941;52.210;5.158;2023-04-24T09:37:35;9.20;;;1.95;;
65328;SDS011;51941;52.210;5.158;2023-04-24T09:40:14;5.88;;;1.50;;
65328;SDS011;51941;52.210;5.158;2023-04-24T09:42:46;9.38;;;1.70;;
65328;SDS011;51941;52.210;5.158;2023-04-24T09:45:17;7.93;;;1.73;;
65328;SDS011;51941;52.210;5.158;2023-04-24T09:47:44;7.22;;;1.50;;
65328;SDS011;51941;52.210;5.158;2023-04-24T09:50:12;4.55;;;1.25;;
65328;SDS011;51941;52.210;5.158;2023-04-24T09:52:40;6.85;;;1.25;;
65328;SDS011;51941;52.210;5.158;2023-04-24T09:55:18;7.82;;;1.73;;
65328;SDS011;51941;52.210;5.158;2023-04-24T09:57:49;7.32;;;1.25;;
65328;SDS011;51941;52.210;5.158;2023-04-24T10:00:23;5.20;;;1.33;;
65328;SDS011;51941;52.210;5.158;2023-04-24T10:02:58;4.35;;;1.23;;
65328;SDS011;51941;52.210;5.158;2023-04-24T10:05:29;5.32;;;0.77;;
65328;SDS011;51941;52.210;5.158;2023-04-24T10:07:57;2.58;;;0.80;;
65328;SDS011;51941;52.210;5.158;2023-04-24T10:10:27;6.00;;;0.93;;
65328;SDS011;51941;52.210;5.158;2023-04-24T10:12:55;7.10;;;1.20;;
65328;SDS011;51941;52.210;5.158;2023-04-24T10:15:21;6.78;;;1.20;;
65328;SDS011;51941;52.210;5.158;2023-04-24T10:17:49;5.32;;;1.10;;
65328;SDS011;51941;52.210;5.158;2023-04-24T10:20:19;1.70;;;1.00;;
65328;SDS011;51941;52.210;5.158;2023-04-24T10:22:47;6.37;;;1.03;;
65328;SDS011;51941;52.210;5.158;2023-04-24T10:25:17;7.40;;;1.00;;
65328;SDS011;51941;52.210;5.158;2023-04-24T10:30:18;8.38;;;0.95;;
65328;SDS011;51941;52.210;5.158;2023-04-24T10:32:45;2.67;;;0.80;;
65328;SDS011;51941;52.210;5.158;2023-04-24T10:35:12;5.28;;;0.80;;
65328;SDS011;51941;52.210;5.158;2023-04-24T10:37:51;3.67;;;0.70;;
65328;SDS011;51941;52.210;5.158;2023-04-24T10:41:07;4.95;;;0.95;;
65328;SDS011;51941;52.210;5.158;2023-04-24T10:43:43;2.83;;;0.90;;
65328;SDS011;51941;52.210;5.158;2023-04-24T10:46:10;4.55;;;0.80;;
65328;SDS011;51941;52.210;5.158;2023-04-24T10:48:43;5.35;;;1.02;;
65328;SDS011;51941;52.210;5.158;2023-04-24T10:51:13;4.85;;;1.00;;
65328;SDS011;51941;52.210;5.158;2023-04-24T10:56:23;9.05;;;1.17;;
65328;SDS011;51941;52.210;5.158;2023-04-24T10:59:26;7.25;;;0.80;;
65328;SDS011;51941;52.210;5.158;2023-04-24T11:02:03;6.13;;;0.90;;
65328;SDS011;51941;52.210;5.158;2023-04-24T11:04:51;4.72;;;1.15;;
65328;SDS011;51941;52.210;5.158;2023-04-24T11:07:39;6.95;;;1.05;;
65328;SDS011;51941;52.210;5.158;2023-04-24T11:11:02;4.80;;;0.95;;
65328;SDS011;51941;52.210;5.158;2023-04-24T11:16:33;1.60;;;0.30;;
65328;SDS011;51941;52.210;5.158;2023-04-24T11:19:04;2.92;;;0.60;;
65328;SDS011;51941;52.210;5.158;2023-04-24T11:21:32;1.67;;;0.40;;
65328;SDS011;51941;52.210;5.158;2023-04-24T11:27:46;2.97;;;0.20;;
65328;SDS011;51941;52.210;5.158;2023-04-24T11:30:22;2.00;;;0.40;;
65328;SDS011;51941;52.210;5.158;2023-04-24T11:32:50;2.15;;;0.30;;
65328;SDS011;51941;52.210;5.158;2023-04-24T11:36:40;1.77;;;0.40;;
65328;SDS011;51941;52.210;5.158;2023-04-24T11:38:28;1.70;;;0.40;;
65328;SDS011;51941;52.210;5.158;2023-04-24T11:40:55;2.35;;;0.40;;
65328;SDS011;51941;52.210;5.158;2023-04-24T11:46:21;2.63;;;0.60;;
65328;SDS011;51941;52.210;5.158;2023-04-24T11:48:55;6.45;;;0.68;;
65328;SDS011;51941;52.210;5.158;2023-04-24T11:51:41;5.15;;;0.88;;
65328;SDS011;51941;52.210;5.158;2023-04-24T11:54:08;4.00;;;0.77;;
65328;SDS011;51941;52.210;5.158;2023-04-24T11:56:35;2.90;;;0.70;;
65328;SDS011;51941;52.210;5.158;2023-04-24T12:00:23;3.38;;;0.70;;
65328;SDS011;51941;52.210;5.158;2023-04-24T12:02:37;5.20;;;0.85;;
65328;SDS011;51941;52.210;5.158;2023-04-24T12:05:06;5.10;;;0.95;;
65328;SDS011;51941;52.210;5.158;2023-04-24T12:07:39;4.75;;;0.80;;
65328;SDS011;51941;52.210;5.158;2023-04-24T12:10:08;5.57;;;1.13;;
65328;SDS011;51941;52.210;5.158;2023-04-24T12:12:35;5.13;;;1.00;;
65328;SDS011;51941;52.210;5.158;2023-04-24T12:15:06;4.30;;;0.90;;
65328;SDS011;51941;52.210;5.158;2023-04-24T12:17:34;1.55;;;0.70;;
65328;SDS011;51941;52.210;5.158;2023-04-24T12:20:02;5.88;;;1.00;;
65328;SDS011;51941;52.210;5.158;2023-04-24T12:22:43;4.93;;;0.93;;
65328;SDS011;51941;52.210;5.158;2023-04-24T12:25:12;3.33;;;0.80;;
65328;SDS011;51941;52.210;5.158;2023-04-24T12:27:39;5.30;;;1.13;;
65328;SDS011;51941;52.210;5.158;2023-04-24T12:30:09;5.10;;;1.00;;
65328;SDS011;51941;52.210;5.158;2023-04-24T12:32:40;4.10;;;1.00;;
65328;SDS011;51941;52.210;5.158;2023-04-24T12:35:08;6.43;;;1.20;;
65328;SDS011;51941;52.210;5.158;2023-04-24T12:37:35;7.07;;;1.48;;
65328;SDS011;51941;52.210;5.158;2023-04-24T12:42:45;10.05;;;1.63;;
65328;SDS011;51941;52.210;5.158;2023-04-24T12:45:14;17.17;;;1.70;;
65328;SDS011;51941;52.210;5.158;2023-04-24T12:47:43;12.15;;;1.95;;
65328;SDS011;51941;52.210;5.158;2023-04-24T12:50:12;10.73;;;1.50;;
65328;SDS011;51941;52.210;5.158;2023-04-24T12:52:40;13.10;;;2.22;;
65328;SDS011;51941;52.210;5.158;2023-04-24T12:55:07;12.05;;;1.98;;
65328;SDS011;51941;52.210;5.158;2023-04-24T12:57:35;10.80;;;2.33;;
65328;SDS011;51941;52.210;5.158;2023-04-24T13:00:06;10.93;;;1.92;;
65328;SDS011;51941;52.210;5.158;2023-04-24T13:02:34;14.40;;;2.33;;
65328;SDS011;51941;52.210;5.158;2023-04-24T13:05:01;15.30;;;2.10;;
65328;SDS011;51941;52.210;5.158;2023-04-24T13:07:28;11.60;;;2.15;;
65328;SDS011;51941;52.210;5.158;2023-04-24T13:09:55;17.67;;;2.63;;
65328;SDS011;51941;52.210;5.158;2023-04-24T13:12:22;16.75;;;2.13;;
65328;SDS011;51941;52.210;5.158;2023-04-24T13:14:50;12.27;;;2.15;;
65328;SDS011;51941;52.210;5.158;2023-04-24T13:17:18;10.32;;;1.70;;
65328;SDS011;51941;52.210;5.158;2023-04-24T13:19:45;13.60;;;1.95;;
65328;SDS011;51941;52.210;5.158;2023-04-24T13:22:12;9.55;;;1.80;;
65328;SDS011;51941;52.210;5.158;2023-04-24T13:24:39;13.98;;;2.20;;
65328;SDS011;51941;52.210;5.158;2023-04-24T13:27:07;7.72;;;1.67;;
65328;SDS011;51941;52.210;5.158;2023-04-24T13:29:34;14.38;;;2.67;;
65328;SDS011;51941;52.210;5.158;2023-04-24T13:32:00;9.20;;;2.03;;
65328;SDS011;51941;52.210;5.158;2023-04-24T13:34:28;9.57;;;2.22;;
65328;SDS011;51941;52.210;5.158;2023-04-24T13:36:56;13.10;;;3.15;;
65328;SDS011;51941;52.210;5.158;2023-04-24T13:39:24;7.22;;;1.77;;
65328;SDS011;51941;52.210;5.158;2023-04-24T13:41:51;15.85;;;2.65;;
65328;SDS011;51941;52.210;5.158;2023-04-24T13:44:18;13.18;;;2.00;;
65328;SDS011;51941;52.210;5.158;2023-04-24T13:46:47;8.68;;;1.90;;
65328;SDS011;51941;52.210;5.158;2023-04-24T13:49:16;12.38;;;1.92;;
65328;SDS011;51941;52.210;5.158;2023-04-24T13:51:45;11.52;;;2.40;;
65328;SDS011;51941;52.210;5.158;2023-04-24T13:54:12;11.95;;;2.17;;
65328;SDS011;51941;52.210;5.158;2023-04-24T13:56:39;16.17;;;2.40;;
65328;SDS011;51941;52.210;5.158;2023-04-24T13:59:06;10.50;;;2.20;;
65328;SDS011;51941;52.210;5.158;2023-04-24T14:05:14;10.25;;;2.25;;
65328;SDS011;51941;52.210;5.158;2023-04-24T14:07:42;12.30;;;3.05;;
65328;SDS011;51941;52.210;5.158;2023-04-24T14:13:02;9.35;;;2.05;;
65328;SDS011;51941;52.210;5.158;2023-04-24T14:15:29;14.88;;;2.47;;
65328;SDS011;51941;52.210;5.158;2023-04-24T14:17:57;9.20;;;1.98;;
65328;SDS011;51941;52.210;5.158;2023-04-24T14:20:23;7.90;;;1.77;;
65328;SDS011;51941;52.210;5.158;2023-04-24T14:22:57;14.75;;;2.35;;
65328;SDS011;51941;52.210;5.158;2023-04-24T14:25:25;11.32;;;1.98;;
65328;SDS011;51941;52.210;5.158;2023-04-24T14:27:52;12.77;;;2.55;;
65328;SDS011;51941;52.210;5.158;2023-04-24T14:30:22;12.25;;;2.40;;
65328;SDS011;51941;52.210;5.158;2023-04-24T14:32:49;11.15;;;2.25;;
65328;SDS011;51941;52.210;5.158;2023-04-24T14:35:16;10.18;;;2.40;;
65328;SDS011;51941;52.210;5.158;2023-04-24T14:37:43;8.95;;;1.75;;
65328;SDS011;51941;52.210;5.158;2023-04-24T14:40:11;8.18;;;1.80;;
65328;SDS011;51941;52.210;5.158;2023-04-24T14:42:38;7.15;;;1.60;;
65328;SDS011;51941;52.210;5.158;2023-04-24T14:45:05;10.95;;;2.13;;
65328;SDS011;51941;52.210;5.158;2023-04-24T14:47:33;5.32;;;1.67;;
65328;SDS011;51941;52.210;5.158;2023-04-24T14:49:59;9.38;;;2.17;;
65328;SDS011;51941;52.210;5.158;2023-04-24T14:52:26;13.73;;;2.30;;
65328;SDS011;51941;52.210;5.158;2023-04-24T14:54:52;13.10;;;2.83;;
65328;SDS011;51941;52.210;5.158;2023-04-24T14:57:21;7.20;;;2.17;;
65328;SDS011;51941;52.210;5.158;2023-04-24T14:59:47;11.77;;;2.22;;
65328;SDS011;51941;52.210;5.158;2023-04-24T15:02:14;11.93;;;2.80;;
65328;SDS011;51941;52.210;5.158;2023-04-24T15:04:41;10.20;;;2.55;;
65328;SDS011;51941;52.210;5.158;2023-04-24T15:07:07;11.20;;;2.15;;
65328;SDS011;51941;52.210;5.158;2023-04-24T15:09:34;12.90;;;2.92;;
65328;SDS011;51941;52.210;5.158;2023-04-24T15:12:01;13.55;;;2.60;;
65328;SDS011;51941;52.210;5.158;2023-04-24T15:14:29;8.60;;;2.50;;
65328;SDS011;51941;52.210;5.158;2023-04-24T15:16:56;13.05;;;2.35;;
65328;SDS011;51941;52.210;5.158;2023-04-24T15:19:22;12.90;;;2.22;;
65328;SDS011;51941;52.210;5.158;2023-04-24T15:21:49;12.98;;;2.72;;
65328;SDS011;51941;52.210;5.158;2023-04-24T15:24:15;10.82;;;2.90;;
65328;SDS011;51941;52.210;5.158;2023-04-24T15:26:42;16.42;;;2.58;;
65328;SDS011;51941;52.210;5.158;2023-04-24T15:29:08;12.63;;;2.70;;
65328;SDS011;51941;52.210;5.158;2023-04-24T15:31:36;13.18;;;3.05;;